Landes Station, West Virginia
Current Conditions -  °F | °C
As of 10:35 PM on Monday 20 Oct 2014 (Local Time) from K8W2 Reporting Station
Overcast Overcast  
Wind Chill: 13°   Ceiling: 9000
Heat Index: 13°   Visibility: 10mi
Dew Point: 11°   Wind: 0mph
Humidity: 91%   Direction: NA
Pressure: 29.93"   Gusts: NA
Location:  38.9337°N, 79.1435°W
Report Text: K8W2 210235Z AUTO 00000KT 10SM SCT080 OVC090 13/11 A2993 RMK AO1 T01250110
Loading
Personal Weather Stations






























Interactive Weather Map
Tropical Storm Tracking
New forecast layout! Learn more

10-Day Weather Forecast

Advertisements
Track Severe Weather on mobile